createdAt,value
2018-06-10T00:02:09.078Z,19.41
2018-06-10T00:04:38.338Z,19.39
2018-06-10T00:07:07.728Z,19.37
2018-06-10T00:09:36.976Z,19.36
2018-06-10T00:12:06.221Z,19.34
2018-06-10T00:14:35.485Z,19.32
2018-06-10T00:17:04.839Z,19.31
2018-06-10T00:19:34.060Z,19.30
2018-06-10T00:22:03.294Z,19.27
2018-06-10T00:24:32.525Z,19.25
2018-06-10T00:27:02.007Z,19.22
2018-06-10T00:29:31.259Z,19.16
2018-06-10T00:32:00.436Z,19.12
2018-06-10T00:34:29.629Z,19.09
2018-06-10T00:36:58.831Z,19.06
2018-06-10T00:39:28.048Z,19.05
2018-06-10T00:41:57.293Z,19.02
2018-06-10T00:44:26.616Z,19.00
2018-06-10T00:46:55.868Z,19.00
2018-06-10T00:49:25.059Z,18.99
2018-06-10T00:51:54.340Z,18.97
2018-06-10T00:54:23.627Z,18.94
2018-06-10T00:56:53.734Z,18.93
2018-06-10T00:59:23.194Z,18.91
2018-06-10T01:01:52.413Z,18.90
2018-06-10T01:04:21.878Z,18.84
2018-06-10T01:06:51.117Z,18.81
2018-06-10T01:09:20.352Z,18.78
2018-06-10T01:11:49.597Z,18.75
2018-06-10T01:14:19.262Z,18.73
2018-06-10T01:16:49.308Z,18.71
2018-06-10T01:19:18.505Z,18.66
2018-06-10T01:21:47.841Z,18.64
2018-06-10T01:24:17.070Z,18.60
2018-06-10T01:26:52.584Z,18.57
2018-06-10T01:29:21.770Z,18.56
2018-06-10T01:31:51.049Z,18.55
2018-06-10T01:34:20.326Z,18.54
2018-06-10T01:36:49.799Z,18.52
2018-06-10T01:39:19.039Z,18.49
2018-06-10T01:41:48.564Z,18.45
2018-06-10T01:44:19.412Z,18.38
2018-06-10T01:46:48.599Z,18.34
2018-06-10T01:49:17.831Z,18.32
2018-06-10T01:51:47.190Z,18.27
2018-06-10T01:54:16.426Z,18.23
2018-06-10T01:56:45.740Z,18.17
2018-06-10T01:59:14.963Z,18.14
2018-06-10T02:01:44.153Z,18.11
2018-06-10T02:04:13.657Z,18.09
2018-06-10T02:06:42.890Z,18.02
2018-06-10T02:09:12.132Z,17.97
2018-06-10T02:11:41.374Z,17.90
2018-06-10T02:14:10.879Z,17.89
2018-06-10T02:16:40.642Z,17.88
2018-06-10T02:19:09.946Z,17.89
2018-06-10T02:21:39.134Z,17.88
2018-06-10T02:24:08.335Z,17.89
2018-06-10T02:26:37.611Z,17.83
2018-06-10T02:29:07.017Z,17.81
2018-06-10T02:31:36.250Z,17.76
2018-06-10T02:34:05.511Z,17.74
2018-06-10T02:36:34.731Z,17.70
2018-06-10T02:39:04.175Z,17.65
2018-06-10T02:41:33.515Z,17.65
2018-06-10T02:44:02.734Z,17.67
2018-06-10T02:46:31.983Z,17.67
2018-06-10T02:49:01.238Z,17.65
2018-06-10T02:51:30.475Z,17.61
2018-06-10T02:54:00.248Z,17.58
2018-06-10T02:56:29.475Z,17.58
2018-06-10T02:58:58.751Z,17.59
2018-06-10T03:01:27.991Z,17.59
2018-06-10T03:03:57.238Z,17.61
2018-06-10T03:06:26.518Z,17.63
2018-06-10T03:08:56.051Z,17.66
2018-06-10T03:11:25.515Z,17.68
2018-06-10T03:13:54.741Z,17.71
2018-06-10T03:16:24.055Z,17.75
2018-06-10T03:18:53.307Z,17.76
2018-06-10T03:21:23.022Z,17.79
2018-06-10T03:23:52.245Z,17.83
2018-06-10T03:26:22.464Z,17.84
2018-06-10T03:28:51.732Z,17.87
2018-06-10T03:31:20.939Z,17.90
2018-06-10T03:33:50.169Z,17.91
2018-06-10T03:36:19.365Z,17.91
2018-06-10T03:38:48.617Z,17.94
2018-06-10T03:41:17.894Z,17.97
2018-06-10T03:43:47.128Z,18.01
2018-06-10T03:46:16.366Z,18.04
2018-06-10T03:48:45.658Z,18.07
2018-06-10T03:51:14.959Z,18.11
2018-06-10T03:53:44.612Z,18.14
2018-06-10T03:56:14.104Z,18.19
2018-06-10T03:58:43.344Z,18.23
2018-06-10T04:01:12.617Z,18.30
2018-06-10T04:03:41.839Z,18.35
2018-06-10T04:06:11.252Z,18.44
2018-06-10T04:08:40.482Z,18.50
2018-06-10T04:11:09.814Z,18.57
2018-06-10T04:13:39.067Z,18.63
2018-06-10T04:16:08.303Z,18.72
2018-06-10T04:18:37.549Z,18.82
2018-06-10T04:21:06.887Z,18.91
2018-06-10T04:23:36.179Z,19.00
2018-06-10T04:26:05.448Z,19.07
2018-06-10T04:28:34.659Z,19.20
2018-06-10T04:31:04.080Z,19.28
2018-06-10T04:33:33.652Z,19.36
2018-06-10T04:36:02.839Z,19.48
2018-06-10T04:38:32.049Z,19.67
2018-06-10T04:41:01.336Z,19.94
2018-06-10T04:43:30.603Z,20.16
2018-06-10T04:45:59.842Z,20.34
2018-06-10T04:48:29.052Z,20.49
2018-06-10T04:50:58.282Z,20.65
2018-06-10T04:53:27.493Z,20.84
2018-06-10T04:55:56.797Z,21.03
2018-06-10T04:58:27.864Z,21.23
2018-06-10T05:00:57.134Z,21.42
2018-06-10T05:03:26.327Z,21.63
2018-06-10T05:05:55.569Z,21.79
2018-06-10T05:08:25.469Z,21.92
2018-06-10T05:10:54.756Z,22.03
2018-06-10T05:13:24.060Z,22.11
2018-06-10T05:15:53.389Z,22.07
2018-06-10T05:18:22.668Z,22.11
2018-06-10T05:20:52.086Z,22.12
2018-06-10T05:23:21.444Z,22.06
2018-06-10T05:25:51.680Z,21.93
2018-06-10T05:28:21.309Z,21.82
2018-06-10T05:30:51.036Z,21.81
2018-06-10T05:33:20.222Z,21.73
2018-06-10T05:35:49.450Z,21.68
2018-06-10T05:38:18.707Z,21.63
2018-06-10T05:40:47.920Z,21.63
2018-06-10T05:43:17.141Z,21.58
2018-06-10T05:45:46.369Z,21.57
2018-06-10T05:48:15.652Z,21.53
2018-06-10T05:50:44.905Z,21.61
2018-06-10T05:53:14.139Z,21.52
2018-06-10T05:55:43.378Z,21.41
2018-06-10T05:58:12.634Z,21.40
2018-06-10T06:00:41.863Z,21.39
2018-06-10T06:03:11.074Z,21.33
2018-06-10T06:05:40.323Z,21.35
2018-06-10T06:08:09.522Z,21.39
2018-06-10T06:10:38.846Z,21.47
2018-06-10T06:13:08.248Z,21.50
2018-06-10T06:15:37.485Z,21.53
2018-06-10T06:18:06.777Z,21.61
2018-06-10T06:20:35.956Z,21.65
2018-06-10T06:23:05.242Z,21.74
2018-06-10T06:25:34.507Z,21.79
2018-06-10T06:28:04.219Z,21.90
2018-06-10T06:30:45.539Z,22.03
2018-06-10T06:33:14.843Z,22.17
2018-06-10T06:35:44.200Z,22.23
2018-06-10T06:38:13.422Z,22.33
2018-06-10T06:40:42.657Z,22.44
2018-06-10T06:43:11.950Z,22.45
2018-06-10T06:45:41.195Z,22.61
2018-06-10T06:48:10.508Z,22.72
2018-06-10T06:50:39.833Z,22.82
2018-06-10T06:53:09.210Z,22.88
2018-06-10T06:55:38.434Z,22.89
2018-06-10T06:58:07.797Z,22.88
2018-06-10T07:00:37.069Z,22.82
2018-06-10T07:03:06.378Z,22.83
2018-06-10T07:05:35.578Z,22.83
2018-06-10T07:08:05.153Z,22.85
2018-06-10T07:10:34.380Z,23.02
2018-06-10T07:13:03.657Z,23.27
2018-06-10T07:15:33.146Z,23.48
2018-06-10T07:18:02.394Z,23.49
2018-06-10T07:20:31.679Z,23.09
2018-06-10T07:23:00.889Z,23.64
2018-06-10T07:25:38.344Z,23.88
2018-06-10T07:28:07.649Z,24.01
2018-06-10T07:30:36.890Z,24.25
2018-06-10T07:33:06.291Z,24.50
2018-06-10T07:35:35.530Z,24.78
2018-06-10T07:38:04.803Z,25.00
2018-06-10T07:40:34.251Z,25.02
2018-06-10T07:43:04.163Z,24.92
2018-06-10T07:45:33.400Z,25.15
2018-06-10T07:48:02.729Z,25.26
2018-06-10T07:50:31.930Z,25.36
2018-06-10T07:53:01.099Z,25.39
2018-06-10T07:55:30.357Z,25.38
2018-06-10T07:57:59.688Z,25.36
2018-06-10T08:00:28.909Z,25.51
2018-06-10T08:02:58.721Z,25.74
2018-06-10T08:05:28.331Z,25.98
2018-06-10T08:07:57.489Z,26.00
2018-06-10T08:10:26.702Z,26.12
2018-06-10T08:12:55.916Z,26.18
2018-06-10T08:15:25.126Z,26.54
2018-06-10T08:17:55.346Z,26.69
2018-06-10T08:20:24.729Z,26.84
2018-06-10T08:22:53.970Z,26.97
2018-06-10T08:25:23.214Z,26.72
2018-06-10T08:27:52.397Z,26.53
2018-06-10T08:30:21.595Z,26.50
2018-06-10T08:32:50.793Z,26.35
2018-06-10T08:35:20.068Z,26.21
2018-06-10T08:37:49.227Z,26.02
2018-06-10T08:40:18.467Z,26.03
2018-06-10T08:42:47.693Z,25.89
2018-06-10T08:45:16.921Z,25.84
2018-06-10T08:47:46.138Z,25.63
2018-06-10T08:50:15.401Z,25.65
2018-06-10T08:52:45.158Z,25.71
2018-06-10T08:55:14.378Z,25.88
2018-06-10T08:57:43.634Z,25.79
2018-06-10T09:00:12.893Z,25.81
2018-06-10T09:02:42.095Z,25.98
2018-06-10T09:05:11.382Z,26.07
2018-06-10T09:07:40.588Z,26.05
2018-06-10T09:10:09.818Z,25.98
2018-06-10T09:12:40.899Z,26.06
2018-06-10T09:15:10.261Z,26.19
2018-06-10T09:17:39.475Z,26.27
2018-06-10T09:20:08.697Z,26.15
2018-06-10T09:22:38.804Z,25.87
2018-06-10T09:25:08.280Z,25.82
2018-06-10T09:27:37.467Z,25.83
2018-06-10T09:30:06.703Z,26.01
2018-06-10T09:32:35.965Z,26.36
2018-06-10T09:35:05.228Z,26.68
2018-06-10T09:37:34.360Z,26.80
2018-06-10T09:40:03.605Z,26.97
2018-06-10T09:42:32.754Z,27.11
2018-06-10T09:45:02.019Z,27.16
2018-06-10T09:47:34.644Z,27.53
2018-06-10T09:50:03.959Z,27.82
2018-06-10T09:52:33.157Z,28.08
2018-06-10T09:55:02.460Z,28.28
2018-06-10T09:57:31.722Z,28.46
2018-06-10T10:00:00.877Z,28.80
2018-06-10T10:02:30.097Z,29.01
2018-06-10T10:04:59.237Z,28.94
2018-06-10T10:07:28.429Z,29.07
2018-06-10T10:09:57.664Z,29.41
2018-06-10T10:12:26.874Z,29.55
2018-06-10T10:14:56.127Z,29.72
2018-06-10T10:17:25.369Z,30.01
2018-06-10T10:19:54.563Z,30.01
2018-06-10T10:22:23.762Z,30.15
2018-06-10T10:24:52.962Z,30.21
2018-06-10T10:27:22.097Z,30.25
2018-06-10T10:29:51.310Z,30.24
2018-06-10T10:32:20.592Z,30.06
2018-06-10T10:34:49.759Z,30.33
2018-06-10T10:37:19.100Z,30.52
2018-06-10T10:39:48.279Z,30.86
2018-06-10T10:42:17.447Z,31.06
2018-06-10T10:44:46.601Z,31.27
2018-06-10T10:47:15.782Z,30.90
2018-06-10T10:49:45.450Z,30.82
2018-06-10T10:52:14.648Z,31.08
2018-06-10T10:54:44.314Z,31.51
2018-06-10T10:57:13.509Z,31.26
2018-06-10T10:59:42.661Z,30.87
2018-06-10T11:02:11.812Z,30.58
2018-06-10T11:04:40.984Z,30.40
2018-06-10T11:07:10.166Z,30.58
2018-06-10T11:09:39.329Z,30.47
2018-06-10T11:12:08.500Z,30.96
2018-06-10T11:14:37.805Z,31.07
2018-06-10T11:17:07.181Z,31.27
2018-06-10T11:19:36.418Z,31.24
2018-06-10T11:22:05.563Z,31.30
2018-06-10T11:24:34.737Z,31.24
2018-06-10T11:27:03.879Z,30.97
2018-06-10T11:29:33.006Z,30.61
2018-06-10T11:32:02.170Z,30.80
2018-06-10T11:34:31.347Z,31.10
2018-06-10T11:37:00.615Z,31.49
2018-06-10T11:39:29.779Z,31.52
2018-06-10T11:41:58.955Z,31.62
2018-06-10T11:44:28.088Z,31.89
2018-06-10T11:46:57.221Z,31.95
